createdAt,value
2022-08-30T00:00:28.230Z,69.50
2022-08-30T00:03:37.010Z,69.42
2022-08-30T00:06:43.445Z,69.49
2022-08-30T00:09:49.674Z,69.44
2022-08-30T00:12:56.147Z,69.39
2022-08-30T00:16:02.325Z,69.42
2022-08-30T00:19:08.511Z,69.54
2022-08-30T00:22:13.244Z,69.55
2022-08-30T00:25:20.430Z,69.61
2022-08-30T00:28:26.650Z,69.32
2022-08-30T00:31:32.694Z,69.15
2022-08-30T00:34:37.214Z,69.42
2022-08-30T00:37:44.501Z,69.32
2022-08-30T00:40:50.826Z,69.41
2022-08-30T00:43:57.226Z,69.58
2022-08-30T00:47:04.139Z,69.57
2022-08-30T00:50:12.781Z,69.43
2022-08-30T00:53:22.947Z,69.62
2022-08-30T00:56:30.330Z,69.64
2022-08-30T00:59:36.996Z,69.53
2022-08-30T01:02:44.002Z,69.54
2022-08-30T01:05:51.907Z,69.42
2022-08-30T01:08:58.477Z,69.45
2022-08-30T01:12:05.811Z,69.48
2022-08-30T01:15:15.122Z,69.44
2022-08-30T01:18:22.315Z,69.56
2022-08-30T01:21:37.404Z,69.62
2022-08-30T01:24:46.552Z,69.59
2022-08-30T01:27:58.824Z,69.69
2022-08-30T01:31:05.065Z,69.72
2022-08-30T01:34:12.074Z,69.67
2022-08-30T01:37:19.537Z,69.90
2022-08-30T01:40:25.784Z,69.95
2022-08-30T01:43:31.974Z,70.02
2022-08-30T01:46:40.170Z,70.05
2022-08-30T01:49:46.443Z,69.96
2022-08-30T01:52:52.569Z,69.99
2022-08-30T01:55:57.024Z,70.05
2022-08-30T01:59:03.446Z,70.10
2022-08-30T02:02:10.657Z,69.92
2022-08-30T02:05:17.374Z,70.12
2022-08-30T02:08:23.522Z,69.95
2022-08-30T02:11:27.996Z,70.15
2022-08-30T02:14:34.083Z,70.29
2022-08-30T02:17:38.849Z,70.41
2022-08-30T02:20:44.968Z,70.54
2022-08-30T02:23:49.570Z,70.38
2022-08-30T02:26:56.065Z,70.48
2022-08-30T02:30:02.204Z,70.38
2022-08-30T02:33:07.010Z,70.25
2022-08-30T02:36:13.746Z,70.25
2022-08-30T02:39:19.968Z,70.34
2022-08-30T02:42:24.401Z,70.35
2022-08-30T02:45:30.911Z,70.24
2022-08-30T02:48:37.110Z,70.27
2022-08-30T02:51:42.067Z,70.17
2022-08-30T02:54:48.140Z,70.36
2022-08-30T02:57:54.323Z,70.20
2022-08-30T03:01:00.721Z,70.37
2022-08-30T03:04:07.115Z,70.33
2022-08-30T03:07:14.202Z,70.52
2022-08-30T03:10:20.801Z,70.50
2022-08-30T03:13:27.050Z,70.43
2022-08-30T03:16:33.367Z,70.58
2022-08-30T03:19:40.153Z,70.69
2022-08-30T03:22:46.583Z,70.63
2022-08-30T03:25:53.594Z,70.50
2022-08-30T03:29:00.359Z,70.56
2022-08-30T03:32:07.016Z,70.59
2022-08-30T03:35:14.108Z,70.54
2022-08-30T03:38:20.421Z,70.61
2022-08-30T03:41:26.630Z,70.51
2022-08-30T03:44:33.258Z,70.50
2022-08-30T03:47:37.840Z,70.76
2022-08-30T03:50:47.226Z,70.79
2022-08-30T03:53:52.159Z,70.91
2022-08-30T03:56:58.528Z,70.93
2022-08-30T04:00:06.704Z,70.77
2022-08-30T04:03:13.592Z,70.76
2022-08-30T04:06:20.108Z,70.90
2022-08-30T04:09:26.515Z,70.87
2022-08-30T04:12:32.724Z,70.80
2022-08-30T04:15:37.354Z,70.89
2022-08-30T04:18:43.546Z,70.87
2022-08-30T04:21:48.153Z,70.83
2022-08-30T04:24:54.357Z,70.94
2022-08-30T04:27:58.773Z,71.02
2022-08-30T04:31:12.112Z,71.15
2022-08-30T04:34:18.681Z,71.08
2022-08-30T04:37:24.742Z,71.16
2022-08-30T04:40:31.574Z,71.45
2022-08-30T04:43:37.779Z,71.46
2022-08-30T04:46:44.573Z,71.47
2022-08-30T04:49:51.120Z,71.37
2022-08-30T04:52:55.573Z,71.47
2022-08-30T04:56:01.961Z,71.74
2022-08-30T04:59:08.203Z,71.72
2022-08-30T05:02:14.845Z,71.55
2022-08-30T05:05:39.186Z,71.55
2022-08-30T05:08:45.993Z,71.65
2022-08-30T05:11:53.567Z,71.66
2022-08-30T05:14:59.600Z,71.79
2022-08-30T05:18:07.664Z,71.80
2022-08-30T05:21:16.501Z,71.88
2022-08-30T05:24:22.683Z,71.98
2022-08-30T05:27:27.154Z,72.14
2022-08-30T05:30:36.336Z,72.10
2022-08-30T05:33:42.555Z,72.29
2022-08-30T05:36:47.047Z,72.44
2022-08-30T05:39:53.250Z,72.50
2022-08-30T05:42:57.725Z,72.59
2022-08-30T05:46:05.701Z,72.67
2022-08-30T05:49:11.919Z,72.74
2022-08-30T05:52:18.438Z,72.91
2022-08-30T05:55:24.660Z,72.83
2022-08-30T05:58:29.098Z,72.91
2022-08-30T06:01:38.010Z,73.13
2022-08-30T06:04:44.181Z,73.16
2022-08-30T06:07:51.262Z,73.29
2022-08-30T06:10:55.807Z,73.19
2022-08-30T06:14:02.084Z,73.27
2022-08-30T06:17:08.447Z,73.47
2022-08-30T06:20:19.006Z,73.49
2022-08-30T06:23:25.147Z,73.43
2022-08-30T06:26:30.307Z,73.62
2022-08-30T06:29:36.466Z,73.83
2022-08-30T06:32:41.377Z,74.02
2022-08-30T06:35:58.398Z,74.21
2022-08-30T06:39:05.571Z,74.27
2022-08-30T06:42:11.779Z,74.36
2022-08-30T06:45:18.070Z,74.27
2022-08-30T06:48:24.222Z,74.28
2022-08-30T06:51:30.205Z,74.24
2022-08-30T06:54:36.370Z,74.23
2022-08-30T06:57:42.810Z,74.16
2022-08-30T07:00:49.116Z,74.05
2022-08-30T07:03:55.902Z,73.95
2022-08-30T07:07:02.244Z,73.93
2022-08-30T07:10:10.505Z,73.88
2022-08-30T07:13:17.144Z,73.52
2022-08-30T07:16:23.431Z,73.36
2022-08-30T07:19:29.602Z,73.14
2022-08-30T07:22:37.226Z,72.94
2022-08-30T07:25:43.927Z,72.90
2022-08-30T07:28:50.559Z,72.73
2022-08-30T07:32:02.225Z,72.20
2022-08-30T07:35:09.305Z,71.95
2022-08-30T07:38:17.465Z,71.77
2022-08-30T07:41:27.077Z,71.30
2022-08-30T07:44:33.561Z,70.89
2022-08-30T07:47:39.989Z,70.81
2022-08-30T07:50:49.666Z,70.35
2022-08-30T07:53:58.905Z,70.13
2022-08-30T07:57:05.060Z,69.53
2022-08-30T08:00:13.171Z,69.65
2022-08-30T08:03:19.392Z,68.97
2022-08-30T08:06:27.811Z,68.55
2022-08-30T08:09:41.907Z,68.23
2022-08-30T08:12:47.961Z,67.51
2022-08-30T08:15:54.985Z,67.42
2022-08-30T08:19:01.182Z,67.02
2022-08-30T08:22:20.419Z,66.70
2022-08-30T08:25:27.055Z,66.49
2022-08-30T08:28:33.174Z,66.31
2022-08-30T08:31:39.820Z,65.52
2022-08-30T08:34:46.551Z,65.57
2022-08-30T08:37:52.957Z,65.23
2022-08-30T08:41:08.257Z,64.63
2022-08-30T08:44:25.548Z,64.40
2022-08-30T08:47:40.333Z,64.23
2022-08-30T08:51:02.782Z,63.86
2022-08-30T08:54:13.057Z,63.13
2022-08-30T08:57:24.481Z,63.04
2022-08-30T09:00:33.058Z,62.86
2022-08-30T09:03:39.626Z,62.54
2022-08-30T09:06:53.884Z,62.10
2022-08-30T09:10:01.445Z,62.24
2022-08-30T09:13:07.695Z,62.23
2022-08-30T09:16:49.572Z,61.68
2022-08-30T09:20:02.666Z,61.56
2022-08-30T09:23:32.531Z,61.59
2022-08-30T09:26:39.906Z,60.89
2022-08-30T09:29:59.348Z,60.78
2022-08-30T09:33:08.629Z,60.73
2022-08-30T09:36:20.552Z,60.55
2022-08-30T09:39:32.843Z,60.17
2022-08-30T09:42:39.253Z,60.36
2022-08-30T09:45:49.750Z,60.49
2022-08-30T09:48:56.250Z,60.39
2022-08-30T09:52:13.225Z,60.42
2022-08-30T09:55:31.408Z,59.77
2022-08-30T09:58:52.225Z,59.73
2022-08-30T10:02:05.417Z,59.90
2022-08-30T10:05:17.191Z,60.15
2022-08-30T10:08:34.347Z,59.42
2022-08-30T10:11:49.348Z,59.09
2022-08-30T10:15:07.375Z,58.72
2022-08-30T10:18:20.224Z,59.00
2022-08-30T10:21:33.202Z,58.99
2022-08-30T10:24:44.962Z,58.11
2022-08-30T10:27:57.650Z,58.27
2022-08-30T10:31:08.833Z,58.24
2022-08-30T10:34:19.194Z,58.07
2022-08-30T10:37:29.674Z,57.41
2022-08-30T10:40:55.483Z,57.54
2022-08-30T10:44:06.636Z,57.51
2022-08-30T10:47:24.765Z,57.05
2022-08-30T10:50:38.434Z,56.78
2022-08-30T10:53:52.108Z,56.15
2022-08-30T10:56:58.077Z,56.39
2022-08-30T11:00:10.299Z,55.80
2022-08-30T11:03:43.517Z,55.35
2022-08-30T11:07:01.149Z,55.39
2022-08-30T11:10:35.531Z,55.99
2022-08-30T11:13:43.764Z,55.12
2022-08-30T11:16:51.785Z,55.20
2022-08-30T11:20:00.349Z,54.85
2022-08-30T11:23:25.661Z,54.75
2022-08-30T11:27:04.685Z,54.58
2022-08-30T11:30:41.781Z,54.30
2022-08-30T11:33:49.465Z,54.16
2022-08-30T11:37:09.365Z,54.06
2022-08-30T11:40:53.301Z,53.97
2022-08-30T11:44:12.504Z,53.89
2022-08-30T11:47:44.246Z,54.08
2022-08-30T11:50:56.522Z,54.03
2022-08-30T11:54:12.155Z,54.05
2022-08-30T11:57:27.572Z,53.70
2022-08-30T12:00:35.117Z,53.53
2022-08-30T12:03:39.476Z,53.58
2022-08-30T12:06:54.314Z,52.92
2022-08-30T12:10:02.311Z,53.02
2022-08-30T12:13:07.068Z,53.00
2022-08-30T12:16:12.665Z,52.62
2022-08-30T12:19:20.301Z,52.34
2022-08-30T12:22:25.137Z,52.64
2022-08-30T12:25:31.628Z,52.37
2022-08-30T12:28:35.565Z,52.19
2022-08-30T12:31:45.788Z,52.13
2022-08-30T12:34:53.452Z,52.19
2022-08-30T12:37:59.740Z,52.11
2022-08-30T12:41:05.720Z,51.78
2022-08-30T12:44:13.524Z,51.77
2022-08-30T12:47:19.990Z,51.55
2022-08-30T12:50:25.970Z,51.78
2022-08-30T12:53:31.823Z,51.97
2022-08-30T12:56:50.397Z,51.94
2022-08-30T12:59:59.269Z,52.07
2022-08-30T13:03:16.680Z,52.08
2022-08-30T13:06:37.077Z,52.01
2022-08-30T13:09:42.789Z,52.22
2022-08-30T13:13:00.843Z,52.39
2022-08-30T13:16:13.323Z,52.19
2022-08-30T13:19:27.758Z,52.35
2022-08-30T13:22:33.315Z,52.28
2022-08-30T13:25:38.344Z,52.44
2022-08-30T13:28:48.891Z,52.44
2022-08-30T13:31:53.452Z,52.44
2022-08-30T13:34:57.483Z,52.33
2022-08-30T13:38:02.883Z,52.60
2022-08-30T13:41:06.999Z,52.94
2022-08-30T13:44:11.664Z,52.60
2022-08-30T13:47:32.966Z,52.74
2022-08-30T13:50:37.296Z,52.80
2022-08-30T13:53:57.520Z,52.71
2022-08-30T13:57:02.270Z,51.99
2022-08-30T14:00:12.269Z,51.86
2022-08-30T14:03:16.734Z,52.02
2022-08-30T14:06:33.587Z,51.96
2022-08-30T14:09:38.148Z,51.94
2022-08-30T14:13:04.873Z,51.88
2022-08-30T14:19:31.804Z,52.20
2022-08-30T14:22:35.701Z,52.20
2022-08-30T14:25:41.042Z,51.93
2022-08-30T14:28:45.754Z,51.86
2022-08-30T14:31:50.743Z,51.78
2022-08-30T14:34:54.774Z,51.40
2022-08-30T14:37:58.686Z,51.45
2022-08-30T14:41:04.625Z,51.51
2022-08-30T14:44:08.524Z,51.45
2022-08-30T14:47:15.129Z,51.57
2022-08-30T14:50:19.258Z,51.54
2022-08-30T14:53:23.271Z,51.46
2022-08-30T14:56:27.138Z,51.49
2022-08-30T14:59:31.014Z,51.20
2022-08-30T15:02:34.899Z,51.23
2022-08-30T15:05:39.116Z,50.87
2022-08-30T15:08:43.060Z,51.17
2022-08-30T15:11:51.901Z,51.23
2022-08-30T15:14:55.894Z,51.13
2022-08-30T15:17:59.815Z,51.53
2022-08-30T15:21:04.489Z,51.27
2022-08-30T15:24:09.324Z,51.36
2022-08-30T15:27:13.442Z,51.54
2022-08-30T15:30:19.644Z,51.50
2022-08-30T15:33:24.272Z,51.45
2022-08-30T15:36:29.688Z,51.57
2022-08-30T15:39:34.336Z,51.80
2022-08-30T15:42:38.303Z,51.72
2022-08-30T15:45:42.193Z,52.10
2022-08-30T15:48:47.793Z,52.12
2022-08-30T15:51:54.215Z,52.14
2022-08-30T15:54:58.833Z,52.09
2022-08-30T15:58:04.397Z,52.16
2022-08-30T16:01:10.352Z,51.96
2022-08-30T16:04:15.053Z,52.10
2022-08-30T16:07:19.726Z,51.95
2022-08-30T16:10:24.751Z,51.85
2022-08-30T16:13:34.094Z,52.07
2022-08-30T16:16:39.903Z,52.28
2022-08-30T16:19:45.718Z,52.40
2022-08-30T16:22:50.268Z,52.65
2022-08-30T16:25:54.914Z,52.77
2022-08-30T16:29:08.911Z,52.71
2022-08-30T16:32:13.542Z,52.71
2022-08-30T16:35:18.269Z,52.69
2022-08-30T16:38:26.448Z,52.73
2022-08-30T16:41:32.631Z,53.02
2022-08-30T16:44:37.222Z,53.31
2022-08-30T16:47:41.806Z,53.54
2022-08-30T16:50:47.011Z,53.29
2022-08-30T16:53:51.556Z,53.34
2022-08-30T16:56:56.411Z,53.45
2022-08-30T17:00:01.292Z,53.63
2022-08-30T17:03:09.503Z,53.87
2022-08-30T17:06:14.975Z,54.35
2022-08-30T17:09:21.313Z,54.54
2022-08-30T17:12:27.223Z,54.83
2022-08-30T17:15:32.130Z,54.94
2022-08-30T17:18:37.899Z,55.00
2022-08-30T17:21:42.325Z,55.10
2022-08-30T17:24:47.396Z,55.40
2022-08-30T17:27:53.494Z,55.59
2022-08-30T17:30:58.091Z,55.76
2022-08-30T17:34:04.333Z,55.88
2022-08-30T17:37:08.953Z,56.04
2022-08-30T17:40:14.759Z,56.29
2022-08-30T17:43:19.513Z,56.53
2022-08-30T17:49:48.820Z,56.78
2022-08-30T17:52:53.483Z,56.96
2022-08-30T17:55:58.597Z,57.20
2022-08-30T17:59:05.145Z,57.23
2022-08-30T18:02:11.074Z,57.44
2022-08-30T18:05:16.043Z,57.55
2022-08-30T18:08:24.582Z,57.62
2022-08-30T18:11:29.121Z,57.83
2022-08-30T18:14:33.670Z,58.08
2022-08-30T18:17:41.377Z,58.27
2022-08-30T18:20:46.282Z,58.39
2022-08-30T18:23:51.039Z,58.64
2022-08-30T18:26:56.419Z,58.67
2022-08-30T18:30:00.925Z,58.85
2022-08-30T18:33:06.665Z,58.84
2022-08-30T18:36:11.415Z,59.11
2022-08-30T18:39:17.822Z,59.22
2022-08-30T18:42:25.153Z,59.30
2022-08-30T18:45:30.003Z,59.42
2022-08-30T18:48:34.913Z,59.59
2022-08-30T18:51:40.632Z,59.80
2022-08-30T18:54:51.690Z,60.03
2022-08-30T18:57:57.703Z,60.14
2022-08-30T19:01:03.416Z,60.14
2022-08-30T19:04:08.047Z,60.30
2022-08-30T19:07:13.492Z,60.43
2022-08-30T19:10:21.439Z,60.62
2022-08-30T19:13:26.058Z,60.71
2022-08-30T19:16:30.510Z,60.81
2022-08-30T19:19:35.899Z,61.00
2022-08-30T19:23:08.615Z,61.03
2022-08-30T19:26:06.585Z,61.10
2022-08-30T19:29:11.082Z,61.23
2022-08-30T19:32:15.750Z,61.24
2022-08-30T19:35:20.479Z,61.40
2022-08-30T19:38:25.030Z,61.56
2022-08-30T19:41:30.770Z,61.54
2022-08-30T19:44:35.325Z,61.65
2022-08-30T19:47:39.868Z,61.85
2022-08-30T19:50:44.421Z,61.92
2022-08-30T19:53:49.088Z,62.01
2022-08-30T19:56:55.377Z,62.23
2022-08-30T19:59:59.854Z,62.32
2022-08-30T20:03:04.918Z,62.37
2022-08-30T20:06:11.193Z,62.54
2022-08-30T20:09:16.226Z,62.58
2022-08-30T20:12:21.382Z,62.69
2022-08-30T20:15:26.501Z,62.73
2022-08-30T20:18:31.077Z,62.75
2022-08-30T20:21:35.863Z,62.91
2022-08-30T20:24:26.257Z,56.73
2022-08-30T20:24:43.695Z,62.92
2022-08-30T20:27:49.294Z,63.02
2022-08-30T20:30:54.312Z,63.19
2022-08-30T20:33:58.940Z,63.25
2022-08-30T20:37:03.470Z,63.35
2022-08-30T20:40:13.476Z,63.55
2022-08-30T20:43:20.458Z,63.59
2022-08-30T20:46:24.766Z,63.75
2022-08-30T20:49:29.435Z,63.80
2022-08-30T20:52:33.964Z,63.74
2022-08-30T20:55:41.309Z,63.78
2022-08-30T20:58:46.073Z,64.08
2022-08-30T21:01:50.477Z,64.24
2022-08-30T21:04:54.995Z,64.09
2022-08-30T21:07:59.494Z,64.29
2022-08-30T21:11:05.114Z,64.22
2022-08-30T21:14:09.767Z,64.44
2022-08-30T21:17:14.066Z,64.46
2022-08-30T21:20:18.865Z,64.55
2022-08-30T21:23:23.338Z,64.62
2022-08-30T21:26:27.779Z,64.62
2022-08-30T21:29:32.485Z,64.89
2022-08-30T21:32:37.037Z,65.00
2022-08-30T21:35:59.101Z,64.96
2022-08-30T21:39:04.033Z,65.23
2022-08-30T21:42:09.172Z,65.31
2022-08-30T21:45:14.170Z,65.37
2022-08-30T21:48:18.885Z,65.43
2022-08-30T21:51:23.647Z,65.43
2022-08-30T21:54:31.737Z,65.52
2022-08-30T21:57:36.242Z,65.81
2022-08-30T22:00:40.669Z,65.66
2022-08-30T22:03:45.677Z,65.80
2022-08-30T22:06:50.653Z,65.91
2022-08-30T22:09:55.422Z,65.99
2022-08-30T22:13:00.296Z,65.95
2022-08-30T22:16:05.342Z,66.15
2022-08-30T22:19:09.997Z,66.10
2022-08-30T22:22:14.739Z,66.22
2022-08-30T22:25:19.375Z,66.44
2022-08-30T22:28:24.289Z,66.41
2022-08-30T22:31:29.378Z,66.52
2022-08-30T22:34:34.036Z,66.57
2022-08-30T22:37:38.686Z,66.60
2022-08-30T22:40:46.702Z,66.76
2022-08-30T22:43:51.598Z,66.75
2022-08-30T22:46:56.283Z,66.82
2022-08-30T22:50:00.777Z,66.94
2022-08-30T22:53:05.919Z,67.01
2022-08-30T22:56:11.658Z,66.94
2022-08-30T22:59:16.469Z,67.06
2022-08-30T23:02:21.159Z,66.97
2022-08-30T23:05:26.509Z,67.09
2022-08-30T23:08:31.285Z,67.17
2022-08-30T23:11:36.231Z,67.00
2022-08-30T23:14:40.823Z,67.25
2022-08-30T23:17:45.327Z,67.12
2022-08-30T23:20:49.754Z,67.35
2022-08-30T23:24:12.589Z,67.27
2022-08-30T23:27:34.837Z,67.36
2022-08-30T23:30:57.108Z,67.44
2022-08-30T23:34:19.419Z,67.30
2022-08-30T23:37:41.326Z,67.30
2022-08-30T23:41:03.155Z,67.38
2022-08-30T23:44:25.044Z,67.41
2022-08-30T23:47:47.052Z,67.36
2022-08-30T23:51:08.861Z,67.63
2022-08-30T23:54:30.668Z,67.77
2022-08-30T23:57:53.079Z,67.86
